Terminal Aerodrome Forecast
Issued by NWS

Home | Current Version | Previous Version | Text Only | Print | Product List | Glossary On
Versions: 1 2 3 4 5 6 7 8 9 10 11 12
092
FTUS45 KPSR 271720
TAFIPL
TAF
KIPL 271720Z 2718/2818 29012G23KT P6SM SKC
      TEMPO 2722/2802 28018G28KT
     FM280800 29008KT P6SM SKC=

USA.gov is the U.S. government's official web portal to all federal, state and local government web resources and services.